Quimper, France

5:53 PM CEST on October 23, 2014 (GMT +0200)
Pluguffan | Change Station
CLOSE
Current Station
Airport
Location: Quimper,
Elevation: 308 ft
Nearby Weather Stations

Elev 308 ft 47.97 °N, 4.17 °W | Updated 23 minutes ago

Overcast
Overcast
61 °F
Feels Like 61 °F
N
8
Wind Variable Wind from SW

Today
High -- | Low -- °F
--% Chance of Precip.
Yesterday
High -- | Low -- °F
Precip. -- in
8:47 AM 7:13 PM
Waning Crescent, 0% visible
Pressure 30.18 in
Visibility 6.2 miles
Clouds Mostly Cloudy 1300 ft
Mostly Cloudy 1900 ft
Overcast 3300 ft
Dew Point 57 °F
Humidity 88%
Rainfall 0.00 in
Snow Depth Not available.
UV 0 out of 12
Pollen Not available.
Air Quality Not available.
Flu Activity Not available.
METAR LFRQ 231530Z AUTO 22007KT 9999 BKN013 BKN019 OVC033 16/14 Q1022

More Conditions Fewer Conditions

Pressure 30.18 in
Visibility 6.2 miles
Clouds Mostly Cloudy 1300 ft
Mostly Cloudy 1900 ft
Overcast 3300 ft
Dew Point 57 °F
Humidity 88%
Rainfall 0.00 in
Snow Depth Not available.
UV 0 out of 12
Pollen Not available.
Air Quality Not available.
Flu Activity Not available.
METAR LFRQ 231530Z AUTO 22007KT 9999 BKN013 BKN019 OVC033 16/14 Q1022

More Conditions Fewer Conditions

10-Day Weather Forecast

Almanac

Astronomy

Oct. 23, 2014 Rise Set
Actual Time 8:47 AM CEST 7:13 PM CEST
Civil Twilight 8:15 AM CEST 7:45 PM CEST
Nautical Twilight 7:39 AM CEST 8:21 PM CEST
Astronomical Twilight 7:03 AM CEST 8:57 PM CEST
Moon 8:10 AM CEST 7:07 PM CEST
Length of Visible Light 11h 29m
Length of Day
10h 26m
Tomorrow will be 3m 16s shorter.
Waning Crescent, 0% of the Moon is Illuminated
Today
Waning Crescent
Oct 23
New
Oct 30
First Quarter
Nov 6
Full
Nov 14
Last Quarter

Today's Extremes

Country Highs Country Lows

Community

WunderPhotos

Upload Photos

1,764,288 photos uploaded!

WunderBlogs® & News

Nearby

Snow Depth

Not available.

Earthquake Activity

City Distance Mag. Time & Date
No recent earthquake activity has been reported nearby.
Minimum magnitude displayed is 2.5.

Coastal Water Temperatures

Place Temperature
No Stations Reporting

Nearby Weather Stations